Shalimar, Florida
Current Conditions -  °F | °C
As of 1:55 PM on Monday 24 Nov 2014 (Local Time) from KVPS Reporting Station
Broken Clouds Broken Clouds  
Wind Chill: 71°   Ceiling: 25000
Heat Index: 71°   Visibility: 7mi
Dew Point: 65°   Wind: 13mph
Humidity: 81%   Direction: 210°SSW
Pressure: 29.83"   Gusts: NA
Location:  30.45°N, 86.58°W
Report Text: KVPS 241955Z 21011KT 7SM FEW025 SCT100 BKN250 22/19 A2983 RMK AO2A LTG DSNT SE SLP107 T02190186 $
Loading
Personal Weather Stations






























Interactive Weather Map New forecast layout! Learn more

10-Day Weather Forecast

Advertisements
Track Severe Weather on mobile